createdAt,value
2023-04-26T00:00:52.326Z,22.21
2023-04-26T00:01:52.326Z,22.18
2023-04-26T00:02:52.438Z,22.16
2023-04-26T00:03:52.622Z,22.21
2023-04-26T00:04:52.589Z,22.23
2023-04-26T00:05:52.441Z,22.21
2023-04-26T00:06:52.417Z,22.19
2023-04-26T00:07:52.509Z,22.25
2023-04-26T00:08:52.623Z,22.15
2023-04-26T00:09:52.449Z,22.15
2023-04-26T00:10:52.463Z,22.19
2023-04-26T00:11:52.480Z,22.25
2023-04-26T00:12:52.520Z,22.20
2023-04-26T00:13:52.548Z,22.16
2023-04-26T00:14:52.551Z,22.22
2023-04-26T00:15:52.615Z,22.22
2023-04-26T00:16:52.682Z,22.22
2023-04-26T00:17:52.630Z,22.20
2023-04-26T00:18:52.925Z,22.22
2023-04-26T00:19:52.652Z,22.18
2023-04-26T00:20:52.686Z,22.15
2023-04-26T00:21:52.690Z,22.22
2023-04-26T00:22:52.716Z,22.25
2023-04-26T00:23:52.768Z,22.20
2023-04-26T00:24:52.754Z,22.23
2023-04-26T00:25:52.777Z,22.20
2023-04-26T00:26:52.778Z,22.22
2023-04-26T00:27:52.820Z,22.19
2023-04-26T00:28:53.043Z,22.23
2023-04-26T00:29:52.939Z,22.20
2023-04-26T00:30:52.852Z,22.19
2023-04-26T00:31:52.951Z,22.22
2023-04-26T00:32:52.918Z,22.23
2023-04-26T00:33:52.918Z,22.22
2023-04-26T00:34:52.964Z,22.23
2023-04-26T00:35:53.006Z,22.20
2023-04-26T00:36:52.984Z,22.16
2023-04-26T00:37:52.998Z,22.20
2023-04-26T00:38:53.305Z,22.26
2023-04-26T00:39:53.049Z,22.22
2023-04-26T00:40:53.060Z,22.22
2023-04-26T00:41:53.109Z,22.26
2023-04-26T00:42:53.130Z,22.25
2023-04-26T00:43:53.143Z,22.25
2023-04-26T00:44:53.178Z,22.26
2023-04-26T00:45:53.238Z,22.26
2023-04-26T00:46:53.288Z,22.25
2023-04-26T00:47:53.332Z,22.23
2023-04-26T00:48:53.553Z,22.19
2023-04-26T00:49:53.303Z,22.27
2023-04-26T00:50:53.326Z,22.23
2023-04-26T00:51:53.457Z,22.25
2023-04-26T00:52:53.365Z,22.22
2023-04-26T00:53:53.388Z,22.24
2023-04-26T00:54:53.433Z,22.23
2023-04-26T00:55:53.483Z,22.25
2023-04-26T00:56:53.479Z,22.25
2023-04-26T00:57:53.490Z,22.25
2023-04-26T00:58:54.022Z,22.23
2023-04-26T00:59:53.536Z,22.22
2023-04-26T01:33:17.516Z,22.37
2023-04-26T01:34:17.282Z,22.38
2023-04-26T01:35:17.470Z,22.35
2023-04-26T01:36:17.265Z,22.37
2023-04-26T01:37:17.262Z,22.34
2023-04-26T01:38:17.269Z,22.34
2023-04-26T01:39:17.243Z,22.30
2023-04-26T01:40:17.498Z,22.33
2023-04-26T01:41:17.260Z,22.34
2023-04-26T01:42:17.254Z,22.34
2023-04-26T01:43:17.221Z,22.39
2023-04-26T01:44:17.230Z,22.34
2023-04-26T01:45:17.561Z,22.39
2023-04-26T01:46:17.220Z,22.34
2023-04-26T01:47:17.227Z,22.40
2023-04-26T01:48:17.182Z,22.39
2023-04-26T01:49:17.206Z,22.39
2023-04-26T01:50:17.482Z,22.39
2023-04-26T01:51:17.173Z,22.40
2023-04-26T01:52:17.169Z,22.36
2023-04-26T01:53:17.173Z,22.43
2023-04-26T01:54:17.153Z,22.40
2023-04-26T01:55:17.498Z,22.40
2023-04-26T01:56:17.131Z,22.43
2023-04-26T01:57:17.150Z,22.43
2023-04-26T01:58:17.130Z,22.40
2023-04-26T01:59:17.125Z,22.41
2023-04-26T02:00:17.502Z,22.46
2023-04-26T02:01:17.129Z,22.41
2023-04-26T02:02:17.120Z,22.46
2023-04-26T02:03:17.308Z,22.41
2023-04-26T02:04:17.072Z,22.44
2023-04-26T02:05:17.101Z,22.44
2023-04-26T02:06:17.073Z,22.39
2023-04-26T02:07:17.054Z,22.39
2023-04-26T02:08:17.041Z,22.46
2023-04-26T02:09:17.036Z,22.43
2023-04-26T02:10:17.064Z,22.41
2023-04-26T02:11:17.088Z,22.47
2023-04-26T02:12:17.024Z,22.43
2023-04-26T02:13:17.014Z,22.44
2023-04-26T02:14:16.994Z,22.46
2023-04-26T02:15:16.991Z,22.43
2023-04-26T02:16:17.071Z,22.43
2023-04-26T02:17:16.989Z,22.43
2023-04-26T02:18:16.982Z,22.45
2023-04-26T02:19:16.967Z,22.49
2023-04-26T02:20:16.982Z,22.46
2023-04-26T02:21:16.954Z,22.49
2023-04-26T02:22:16.948Z,22.44
2023-04-26T02:23:16.952Z,22.41
2023-04-26T02:24:16.962Z,22.43
2023-04-26T02:25:16.948Z,22.47
2023-04-26T02:26:16.935Z,22.48
2023-04-26T02:27:16.906Z,22.47
2023-04-26T02:28:16.898Z,22.44
2023-04-26T02:29:16.903Z,22.45
2023-04-26T02:30:16.906Z,22.45
2023-04-26T02:31:16.949Z,22.43
2023-04-26T02:32:16.876Z,22.49
2023-04-26T02:33:16.877Z,22.46
2023-04-26T02:34:16.854Z,22.47
2023-04-26T02:35:16.869Z,22.45
2023-04-26T02:36:16.860Z,22.45
2023-04-26T02:37:16.847Z,22.48
2023-04-26T02:38:16.849Z,22.43
2023-04-26T02:39:16.826Z,22.51
2023-04-26T02:40:16.820Z,22.48
2023-04-26T02:41:16.830Z,22.45
2023-04-26T02:42:16.828Z,22.51
2023-04-26T02:43:16.806Z,22.55
2023-04-26T02:44:16.789Z,22.48
2023-04-26T02:45:16.809Z,22.48
2023-04-26T02:46:17.435Z,22.50
2023-04-26T02:47:16.794Z,22.54
2023-04-26T02:48:16.759Z,22.50
2023-04-26T02:49:16.764Z,22.50
2023-04-26T02:50:16.754Z,22.47
2023-04-26T02:51:16.743Z,22.44
2023-04-26T02:52:16.732Z,22.48
2023-04-26T02:53:16.723Z,22.50
2023-04-26T02:54:16.733Z,22.51
2023-04-26T02:55:16.766Z,22.51
2023-04-26T02:56:16.741Z,22.51
2023-04-26T02:57:16.714Z,22.51
2023-04-26T02:58:16.689Z,22.48
2023-04-26T02:59:16.694Z,22.51
2023-04-26T03:00:16.712Z,22.50
2023-04-26T03:01:16.731Z,22.53
2023-04-26T03:02:16.752Z,22.48
2023-04-26T03:03:16.872Z,22.48
2023-04-26T03:04:16.754Z,22.49
2023-04-26T03:05:16.717Z,22.53
2023-04-26T03:06:16.714Z,22.54
2023-04-26T03:07:16.757Z,22.47
2023-04-26T03:08:16.731Z,22.50
2023-04-26T03:09:16.764Z,22.54
2023-04-26T03:10:16.764Z,22.53
2023-04-26T03:11:16.769Z,22.51
2023-04-26T03:12:16.793Z,22.50
2023-04-26T03:13:16.838Z,22.51
2023-04-26T03:14:16.826Z,22.51
2023-04-26T03:15:16.854Z,22.53
2023-04-26T03:16:16.874Z,22.50
2023-04-26T03:17:16.864Z,22.47
2023-04-26T03:18:16.861Z,22.48
2023-04-26T03:19:16.880Z,22.51
2023-04-26T03:20:16.896Z,22.45
2023-04-26T03:21:16.905Z,22.47
2023-04-26T03:22:16.917Z,22.51
2023-04-26T03:23:16.919Z,22.45
2023-04-26T03:24:16.946Z,22.49
2023-04-26T03:25:16.949Z,22.44
2023-04-26T03:26:16.968Z,22.47
2023-04-26T03:27:16.982Z,22.50
2023-04-26T03:28:17.001Z,22.38
2023-04-26T03:29:16.991Z,22.44
2023-04-26T03:30:17.003Z,22.43
2023-04-26T03:31:17.014Z,22.47
2023-04-26T03:32:17.058Z,22.40
2023-04-26T03:33:17.027Z,22.41
2023-04-26T03:34:17.049Z,22.43
2023-04-26T03:35:17.055Z,22.41
2023-04-26T03:36:17.070Z,22.40
2023-04-26T03:37:17.093Z,22.41
2023-04-26T03:38:17.086Z,22.48
2023-04-26T03:39:17.101Z,22.41
2023-04-26T03:40:17.123Z,22.41
2023-04-26T03:41:17.211Z,22.43
2023-04-26T03:42:17.134Z,22.43
2023-04-26T03:43:17.190Z,22.41
2023-04-26T03:44:17.179Z,22.38
2023-04-26T03:45:17.181Z,22.41
2023-04-26T03:46:17.242Z,22.43
2023-04-26T03:47:17.243Z,22.44
2023-04-26T03:48:17.274Z,22.41
2023-04-26T03:49:17.248Z,22.40
2023-04-26T03:50:17.322Z,22.44
2023-04-26T03:51:17.259Z,22.41
2023-04-26T03:52:17.256Z,22.41
2023-04-26T03:53:17.280Z,22.37
2023-04-26T03:54:17.280Z,22.44
2023-04-26T03:55:17.314Z,22.35
2023-04-26T03:56:17.285Z,22.43
2023-04-26T03:57:17.309Z,22.37
2023-04-26T03:58:17.312Z,22.40
2023-04-26T03:59:17.315Z,22.42
2023-04-26T04:00:17.375Z,22.41
2023-04-26T04:01:17.354Z,22.41
2023-04-26T04:02:17.450Z,22.41
2023-04-26T04:03:17.524Z,22.40
2023-04-26T04:04:17.641Z,22.34
2023-04-26T04:05:17.531Z,22.34
2023-04-26T04:06:17.376Z,22.31
2023-04-26T04:07:17.384Z,22.35
2023-04-26T04:08:17.393Z,22.37
2023-04-26T04:09:17.433Z,22.33
2023-04-26T04:10:17.453Z,22.31
2023-04-26T04:11:17.445Z,22.30
2023-04-26T04:12:17.456Z,22.30
2023-04-26T04:13:17.493Z,22.28
2023-04-26T04:14:17.466Z,22.31
2023-04-26T04:15:17.490Z,22.28
2023-04-26T04:16:17.619Z,22.28
2023-04-26T04:17:17.509Z,22.31
2023-04-26T04:18:17.550Z,22.32
2023-04-26T04:19:17.556Z,22.27
2023-04-26T04:20:17.555Z,22.33
2023-04-26T04:21:17.576Z,22.30
2023-04-26T04:22:17.587Z,22.31
2023-04-26T04:23:17.607Z,22.28
2023-04-26T04:24:17.592Z,22.31
2023-04-26T04:25:17.641Z,22.30
2023-04-26T04:26:17.653Z,22.33
2023-04-26T04:27:17.643Z,22.28
2023-04-26T04:28:17.625Z,22.30
2023-04-26T04:29:17.647Z,22.27
2023-04-26T04:30:17.689Z,22.30
2023-04-26T04:31:17.747Z,22.26
2023-04-26T04:32:17.668Z,22.30
2023-04-26T04:33:17.701Z,22.24
2023-04-26T04:34:17.702Z,22.31
2023-04-26T04:35:17.749Z,22.28
2023-04-26T04:36:17.737Z,22.23
2023-04-26T04:37:17.745Z,22.20
2023-04-26T04:38:17.758Z,22.28
2023-04-26T04:39:17.754Z,22.26
2023-04-26T04:40:17.792Z,22.22
2023-04-26T04:41:17.785Z,22.21
2023-04-26T04:42:17.809Z,22.24
2023-04-26T04:43:17.799Z,22.27
2023-04-26T04:44:17.831Z,22.24
2023-04-26T04:45:17.826Z,22.23
2023-04-26T04:46:17.883Z,22.23
2023-04-26T04:47:17.868Z,22.20
2023-04-26T04:48:17.866Z,22.24
2023-04-26T04:49:17.874Z,22.19
2023-04-26T04:50:17.898Z,22.16
2023-04-26T04:51:17.880Z,22.23
2023-04-26T04:52:18.927Z,22.17
2023-04-26T04:53:17.930Z,22.19
2023-04-26T04:54:17.926Z,22.19
2023-04-26T04:55:17.955Z,22.16
2023-04-26T04:56:17.956Z,22.17
2023-04-26T04:57:17.965Z,22.12
2023-04-26T04:58:17.955Z,22.17
2023-04-26T04:59:17.987Z,22.17
2023-04-26T05:00:18.057Z,22.10
2023-04-26T05:01:18.009Z,22.16
2023-04-26T05:02:18.117Z,22.16
2023-04-26T05:03:18.077Z,22.13
2023-04-26T05:04:18.118Z,22.14
2023-04-26T05:05:18.030Z,22.15
2023-04-26T05:06:18.024Z,22.15
2023-04-26T05:07:18.012Z,22.13
2023-04-26T05:08:18.017Z,22.16
2023-04-26T05:09:18.051Z,22.18
2023-04-26T05:10:18.053Z,22.11
2023-04-26T05:11:18.044Z,22.16
2023-04-26T05:12:18.059Z,22.15
2023-04-26T05:13:18.083Z,22.16
2023-04-26T05:14:18.071Z,22.16
2023-04-26T05:15:18.105Z,22.13
2023-04-26T05:16:18.138Z,22.16
2023-04-26T05:17:18.151Z,22.20
2023-04-26T05:18:18.131Z,22.13
2023-04-26T05:19:18.123Z,22.18
2023-04-26T05:20:18.132Z,22.16
2023-04-26T05:21:18.140Z,22.16
2023-04-26T05:22:18.128Z,22.18
2023-04-26T05:23:18.169Z,22.18
2023-04-26T05:24:18.130Z,22.18
2023-04-26T05:25:19.240Z,22.18
2023-04-26T05:26:18.147Z,22.22
2023-04-26T05:27:18.141Z,22.15
2023-04-26T05:28:18.131Z,22.29
2023-04-26T05:29:18.133Z,22.97
2023-04-26T05:30:18.160Z,22.66
2023-04-26T05:31:18.177Z,23.02
2023-04-26T05:32:18.217Z,23.19
2023-04-26T05:33:18.270Z,23.08
2023-04-26T05:34:18.262Z,23.19
2023-04-26T05:35:18.272Z,23.28
2023-04-26T05:36:18.276Z,23.37
2023-04-26T05:37:18.268Z,23.82
2023-04-26T05:38:18.267Z,23.54
2023-04-26T05:39:18.290Z,23.75
2023-04-26T05:40:18.336Z,23.94
2023-04-26T05:41:18.334Z,24.13
2023-04-26T05:42:18.364Z,24.05
2023-04-26T05:43:18.373Z,24.27
2023-04-26T05:44:18.416Z,24.44
2023-04-26T05:45:18.449Z,24.53
2023-04-26T05:46:18.530Z,24.62
2023-04-26T05:47:18.520Z,24.66
2023-04-26T05:48:18.616Z,24.57
2023-04-26T05:49:18.670Z,24.61
2023-04-26T05:50:19.079Z,24.62
2023-04-26T05:51:18.737Z,24.68
2023-04-26T05:52:18.774Z,24.79
2023-04-26T05:53:18.808Z,24.80
2023-04-26T05:54:18.829Z,24.94
2023-04-26T05:55:18.857Z,24.93
2023-04-26T05:56:18.861Z,24.99
2023-04-26T05:57:19.114Z,24.94
2023-04-26T05:58:18.910Z,24.90
2023-04-26T05:59:18.893Z,24.85
2023-04-26T06:00:18.898Z,24.90
2023-04-26T06:01:18.897Z,24.90
2023-04-26T06:02:18.967Z,24.88
2023-04-26T06:03:19.131Z,24.95
2023-04-26T06:04:19.162Z,25.07
2023-04-26T06:05:19.061Z,24.98
2023-04-26T06:06:18.997Z,24.99
2023-04-26T06:07:19.058Z,24.99
2023-04-26T06:08:19.087Z,24.94
2023-04-26T06:09:20.218Z,24.93
2023-04-26T06:10:19.364Z,25.00
2023-04-26T06:11:19.308Z,24.92
2023-04-26T06:12:19.345Z,25.04
2023-04-26T06:13:19.420Z,24.83
2023-04-26T06:14:29.544Z,24.96
2023-04-26T06:15:20.589Z,25.03
2023-04-26T06:16:19.554Z,25.09
2023-04-26T06:17:19.502Z,25.06
2023-04-26T06:18:19.444Z,25.12
2023-04-26T06:19:19.458Z,25.08
2023-04-26T06:20:19.569Z,25.11
2023-04-26T06:21:19.432Z,25.23
2023-04-26T06:22:19.419Z,25.19
2023-04-26T06:24:19.403Z,25.20
2023-04-26T06:25:19.586Z,25.21
2023-04-26T06:26:19.378Z,25.27
2023-04-26T06:27:19.409Z,25.24
2023-04-26T06:28:19.465Z,25.24
2023-04-26T06:29:19.501Z,25.25
2023-04-26T06:30:19.600Z,25.17
2023-04-26T06:31:19.615Z,25.46
2023-04-26T06:32:19.652Z,25.04
2023-04-26T06:33:19.653Z,24.83
2023-04-26T06:34:19.751Z,24.81
2023-04-26T06:35:20.107Z,25.19
2023-04-26T06:36:19.797Z,24.74
2023-04-26T06:37:19.784Z,24.97
2023-04-26T06:38:19.786Z,25.17
2023-04-26T06:39:19.807Z,25.17
2023-04-26T06:40:20.125Z,25.22
2023-04-26T06:41:19.793Z,25.16
2023-04-26T06:42:19.831Z,25.28
2023-04-26T06:43:19.844Z,25.23
2023-04-26T06:44:19.816Z,25.33
2023-04-26T06:45:20.105Z,25.52
2023-04-26T06:46:19.997Z,25.62
2023-04-26T06:47:20.090Z,25.62
2023-04-26T06:48:20.033Z,25.65
2023-04-26T06:49:20.109Z,25.74
2023-04-26T06:50:20.153Z,25.52
2023-04-26T06:51:20.226Z,25.55
2023-04-26T06:52:21.536Z,25.69
2023-04-26T06:53:22.414Z,25.73
2023-04-26T06:54:20.289Z,25.72
2023-04-26T06:55:20.284Z,25.69
2023-04-26T06:56:20.271Z,25.73
2023-04-26T06:57:20.271Z,25.65
2023-04-26T06:58:21.088Z,25.60
2023-04-26T06:59:20.266Z,25.55
2023-04-26T07:00:20.260Z,25.55
2023-04-26T07:01:20.230Z,25.44
2023-04-26T07:02:20.332Z,25.52
2023-04-26T07:03:20.354Z,25.54
2023-04-26T07:04:20.302Z,25.62
2023-04-26T07:05:20.241Z,25.62
2023-04-26T07:06:20.196Z,25.66
2023-04-26T07:07:20.210Z,25.62
2023-04-26T07:08:20.194Z,25.63
2023-04-26T07:09:20.220Z,25.68
2023-04-26T07:10:20.162Z,25.65
2023-04-26T07:11:20.163Z,25.61
2023-04-26T07:12:20.161Z,25.66
2023-04-26T07:13:20.134Z,25.75
2023-04-26T07:14:20.165Z,25.65
2023-04-26T07:15:20.124Z,25.61
2023-04-26T07:16:20.158Z,25.56
2023-04-26T07:17:20.106Z,25.58
2023-04-26T07:18:20.435Z,25.60
2023-04-26T07:19:20.109Z,25.52
2023-04-26T07:20:20.601Z,25.50
2023-04-26T07:21:20.093Z,25.50
2023-04-26T07:22:20.091Z,25.49
2023-04-26T07:23:20.072Z,25.42
2023-04-26T07:24:20.098Z,25.49
2023-04-26T07:25:20.191Z,25.52
2023-04-26T07:26:20.064Z,25.36
2023-04-26T07:27:20.044Z,25.55
2023-04-26T07:28:20.054Z,25.43
2023-04-26T07:29:20.026Z,24.75
2023-04-26T07:30:20.126Z,24.41
2023-04-26T07:31:20.024Z,24.48
2023-04-26T07:32:20.080Z,24.68
2023-04-26T07:33:20.046Z,25.06
2023-04-26T07:34:20.013Z,25.29
2023-04-26T07:35:20.119Z,25.35
2023-04-26T07:36:20.389Z,25.46
2023-04-26T07:37:19.967Z,25.57
2023-04-26T07:38:19.970Z,25.48
2023-04-26T07:39:19.963Z,25.53
2023-04-26T07:40:20.122Z,25.51
2023-04-26T07:41:20.118Z,25.46
2023-04-26T07:42:19.968Z,25.50
2023-04-26T07:43:19.940Z,25.45
2023-04-26T07:44:19.924Z,25.53
2023-04-26T07:45:19.926Z,25.57
2023-04-26T07:46:19.964Z,25.47
2023-04-26T07:47:19.899Z,25.52
2023-04-26T07:48:19.924Z,25.44
2023-04-26T07:49:19.892Z,25.42
2023-04-26T07:50:20.121Z,25.45
2023-04-26T07:51:19.870Z,25.45
2023-04-26T07:52:19.877Z,25.44
2023-04-26T07:53:19.862Z,25.42
2023-04-26T07:54:19.848Z,25.42
2023-04-26T07:55:20.109Z,25.35
2023-04-26T07:56:19.885Z,25.31
2023-04-26T07:57:19.870Z,25.30
2023-04-26T07:58:19.864Z,25.28
2023-04-26T07:59:19.873Z,25.27
2023-04-26T08:00:20.629Z,25.26
2023-04-26T08:01:19.859Z,25.21
2023-04-26T08:02:23.117Z,25.21
2023-04-26T08:03:20.964Z,25.18
2023-04-26T08:04:20.065Z,25.17
2023-04-26T08:05:19.932Z,25.11
2023-04-26T08:06:19.928Z,25.09
2023-04-26T08:07:19.830Z,25.14
2023-04-26T08:08:19.839Z,25.10
2023-04-26T08:09:19.808Z,25.05
2023-04-26T08:10:19.795Z,24.65
2023-04-26T08:11:19.792Z,24.47
2023-04-26T08:12:19.801Z,24.97
2023-04-26T08:13:19.786Z,24.95
2023-04-26T08:14:19.766Z,25.04
2023-04-26T08:15:20.135Z,25.04
2023-04-26T08:16:19.785Z,25.31
2023-04-26T08:17:19.765Z,25.16
2023-04-26T08:18:19.743Z,25.10
2023-04-26T08:19:19.752Z,25.14
2023-04-26T08:20:19.719Z,25.11
2023-04-26T08:21:19.710Z,25.10
2023-04-26T08:22:19.709Z,25.14
2023-04-26T08:23:19.700Z,24.78
2023-04-26T08:24:19.705Z,25.02
2023-04-26T08:25:19.694Z,24.07
2023-04-26T08:26:19.672Z,23.74
2023-04-26T08:27:19.690Z,23.55
2023-04-26T08:28:19.687Z,23.24
2023-04-26T08:29:19.654Z,23.30
2023-04-26T08:30:19.660Z,23.18
2023-04-26T08:31:19.659Z,23.27
2023-04-26T08:32:19.661Z,23.10
2023-04-26T08:33:19.627Z,23.15
2023-04-26T08:34:19.631Z,22.90
2023-04-26T08:35:20.177Z,23.59
2023-04-26T08:36:19.711Z,23.82
2023-04-26T08:37:19.723Z,24.09
2023-04-26T08:38:19.751Z,24.21
2023-04-26T08:39:19.802Z,24.28
2023-04-26T08:40:20.158Z,24.20
2023-04-26T08:41:19.924Z,24.40
2023-04-26T08:42:19.991Z,24.56
2023-04-26T08:43:20.055Z,24.10
2023-04-26T08:44:20.095Z,23.93
2023-04-26T08:45:20.148Z,23.65
2023-04-26T08:46:20.238Z,23.15
2023-04-26T08:47:20.215Z,22.63
2023-04-26T08:48:20.249Z,22.79
2023-04-26T08:49:20.254Z,22.64
2023-04-26T08:50:20.639Z,22.81
2023-04-26T08:51:20.633Z,22.74
2023-04-26T08:52:20.303Z,22.90
2023-04-26T08:53:20.332Z,23.11
2023-04-26T08:54:20.358Z,22.91
2023-04-26T08:55:20.421Z,23.05
2023-04-26T08:56:20.421Z,22.98
2023-04-26T08:57:20.482Z,22.90
2023-04-26T08:58:20.511Z,22.62
2023-04-26T08:59:20.583Z,22.56
2023-04-26T09:00:20.619Z,23.03
2023-04-26T09:01:20.706Z,22.81
2023-04-26T09:02:20.759Z,22.57
2023-04-26T09:03:20.805Z,22.36
2023-04-26T09:04:21.714Z,22.39
2023-04-26T09:05:20.842Z,22.32
2023-04-26T09:06:20.903Z,22.40
2023-04-26T09:07:20.915Z,22.51
2023-04-26T09:08:20.951Z,22.54
2023-04-26T09:09:21.015Z,21.91
2023-04-26T09:10:21.314Z,22.10
2023-04-26T09:11:21.071Z,21.73
2023-04-26T09:12:21.087Z,21.63
2023-04-26T09:13:21.115Z,21.36
2023-04-26T09:14:21.178Z,21.18
2023-04-26T09:15:21.178Z,21.37
2023-04-26T09:16:21.666Z,21.42
2023-04-26T09:17:21.275Z,21.62
2023-04-26T09:18:21.308Z,21.74
2023-04-26T09:19:21.297Z,21.96
2023-04-26T09:20:21.471Z,22.09
2023-04-26T09:21:21.713Z,22.21
2023-04-26T09:22:21.319Z,22.40
2023-04-26T09:23:21.369Z,22.39
2023-04-26T09:24:21.419Z,22.50
2023-04-26T09:25:22.617Z,22.52
2023-04-26T09:26:21.703Z,22.62
2023-04-26T09:27:21.565Z,22.94
2023-04-26T09:28:21.672Z,23.09
2023-04-26T09:29:21.658Z,22.97
2023-04-26T09:30:21.660Z,23.05
2023-04-26T09:31:22.189Z,22.91
2023-04-26T09:32:21.714Z,22.96
2023-04-26T09:33:21.822Z,22.90
2023-04-26T09:34:21.780Z,22.98
2023-04-26T09:35:21.821Z,22.91
2023-04-26T09:36:21.843Z,22.83
2023-04-26T09:37:21.838Z,22.85
2023-04-26T09:38:21.895Z,22.85
2023-04-26T09:39:21.917Z,22.82
2023-04-26T09:40:21.942Z,22.84
2023-04-26T09:41:22.164Z,22.77
2023-04-26T09:42:21.953Z,22.72
2023-04-26T09:43:22.055Z,22.74
2023-04-26T09:44:22.031Z,22.59
2023-04-26T09:45:22.045Z,22.68
2023-04-26T09:46:22.115Z,22.70
2023-04-26T09:47:22.158Z,22.59
2023-04-26T09:48:22.227Z,22.58
2023-04-26T09:49:22.126Z,22.59
2023-04-26T09:50:22.124Z,22.61
2023-04-26T09:51:22.148Z,22.61
2023-04-26T09:52:22.169Z,22.51
2023-04-26T09:53:22.212Z,22.45
2023-04-26T09:54:22.223Z,22.35
2023-04-26T09:55:34.215Z,22.44
2023-04-26T09:56:23.665Z,22.43
2023-04-26T09:57:22.288Z,22.39
2023-04-26T09:58:22.224Z,22.43
2023-04-26T09:59:22.199Z,22.37
2023-04-26T10:00:22.197Z,22.33
2023-04-26T10:01:22.254Z,22.29
2023-04-26T10:02:22.227Z,22.28
2023-04-26T10:03:22.263Z,22.21
2023-04-26T10:04:22.243Z,22.14
2023-04-26T10:05:22.186Z,22.11
2023-04-26T10:06:22.157Z,22.17
2023-04-26T10:07:22.178Z,22.14
2023-04-26T10:08:22.145Z,22.07
2023-04-26T10:09:22.138Z,21.95
2023-04-26T10:10:22.118Z,21.86
2023-04-26T10:11:22.145Z,21.95
2023-04-26T10:12:22.128Z,21.88
2023-04-26T10:13:22.094Z,21.78
2023-04-26T10:14:22.101Z,21.78
2023-04-26T10:15:22.103Z,21.66
2023-04-26T10:16:22.142Z,21.61
2023-04-26T10:17:22.160Z,21.66
2023-04-26T10:18:22.156Z,21.60
2023-04-26T10:19:22.178Z,21.71
2023-04-26T10:20:22.216Z,22.45
2023-04-26T10:21:22.674Z,19.74
2023-04-26T10:22:22.288Z,19.79
2023-04-26T10:23:22.327Z,21.28
2023-04-26T10:24:22.420Z,20.09
2023-04-26T10:25:22.410Z,19.81
2023-04-26T10:26:22.668Z,20.03
2023-04-26T10:27:22.440Z,20.41
2023-04-26T10:28:22.446Z,21.06
2023-04-26T10:29:22.498Z,21.20
2023-04-26T10:30:22.519Z,21.43
2023-04-26T10:31:22.742Z,20.58
2023-04-26T10:32:22.548Z,20.62
2023-04-26T10:33:22.673Z,20.81
2023-04-26T10:34:22.614Z,20.69
2023-04-26T10:35:22.638Z,20.41
2023-04-26T10:36:22.684Z,20.75
2023-04-26T10:37:22.787Z,20.76
2023-04-26T10:38:22.749Z,20.96
2023-04-26T10:39:22.786Z,20.72
2023-04-26T10:40:22.858Z,20.63
2023-04-26T10:41:23.183Z,20.87
2023-04-26T10:42:24.097Z,20.50
2023-04-26T10:43:24.346Z,20.74
2023-04-26T10:44:23.043Z,20.61
2023-04-26T10:45:23.064Z,20.19
2023-04-26T10:46:23.199Z,20.26
2023-04-26T10:47:23.175Z,20.33
2023-04-26T10:48:23.203Z,20.36
2023-04-26T10:49:25.670Z,20.46
2023-04-26T10:50:23.243Z,20.40
2023-04-26T10:51:23.217Z,20.59
2023-04-26T10:52:23.329Z,20.42
2023-04-26T10:53:23.220Z,20.52
2023-04-26T10:54:23.208Z,20.59
2023-04-26T10:55:25.329Z,20.35
2023-04-26T10:56:23.185Z,20.40
2023-04-26T10:57:23.187Z,20.06
2023-04-26T10:58:23.170Z,19.78
2023-04-26T10:59:36.797Z,19.53
2023-04-26T11:00:24.184Z,19.70
2023-04-26T11:01:23.206Z,20.06
2023-04-26T11:02:23.180Z,20.04
2023-04-26T11:03:23.271Z,20.17
2023-04-26T11:04:23.296Z,19.94
2023-04-26T11:05:24.849Z,19.76
2023-04-26T11:06:23.144Z,19.79
2023-04-26T11:07:23.142Z,19.89
2023-04-26T11:08:23.124Z,19.86
2023-04-26T11:09:23.163Z,19.72
2023-04-26T11:10:23.249Z,19.43
2023-04-26T11:11:23.242Z,19.71
2023-04-26T11:12:23.270Z,19.87
2023-04-26T11:13:23.326Z,19.63
2023-04-26T11:14:23.349Z,20.46
2023-04-26T11:15:23.383Z,18.94
2023-04-26T11:16:23.463Z,19.33
2023-04-26T11:17:23.489Z,19.42
2023-04-26T11:18:23.513Z,19.41
2023-04-26T11:19:23.587Z,19.45
2023-04-26T11:20:23.633Z,19.57
2023-04-26T11:21:23.687Z,19.72
2023-04-26T11:22:23.759Z,19.68
2023-04-26T11:23:23.821Z,19.01
2023-04-26T11:24:23.872Z,18.98
2023-04-26T11:25:23.974Z,19.07
2023-04-26T11:26:24.000Z,19.18
2023-04-26T11:27:24.048Z,19.18
2023-04-26T11:28:24.105Z,19.31
2023-04-26T11:29:24.177Z,19.29
2023-04-26T11:30:24.241Z,18.93
2023-04-26T11:31:24.312Z,18.85
2023-04-26T11:32:24.373Z,18.80
2023-04-26T11:33:24.419Z,18.49
2023-04-26T11:34:24.462Z,18.28
2023-04-26T11:35:24.540Z,18.48
2023-04-26T11:36:24.610Z,18.55
2023-04-26T11:37:24.655Z,18.28
2023-04-26T11:38:24.735Z,18.25
2023-04-26T11:39:24.784Z,18.33
2023-04-26T11:40:24.829Z,18.56
2023-04-26T11:41:24.897Z,18.33
2023-04-26T11:42:24.967Z,18.25
2023-04-26T11:43:25.058Z,18.32
2023-04-26T11:44:25.116Z,18.28
2023-04-26T11:45:25.157Z,18.29
2023-04-26T11:46:25.246Z,18.36
2023-04-26T11:47:25.267Z,18.31
2023-04-26T11:48:25.389Z,18.45
2023-04-26T11:49:25.393Z,18.28
2023-04-26T11:50:25.458Z,18.21
2023-04-26T11:51:25.527Z,18.49
2023-04-26T11:52:25.581Z,18.56
2023-04-26T11:53:25.663Z,18.46
2023-04-26T11:54:25.708Z,18.44
2023-04-26T11:55:25.791Z,18.42
2023-04-26T11:56:25.857Z,18.37
2023-04-26T11:57:25.914Z,18.56
2023-04-26T11:58:25.959Z,18.32
2023-04-26T11:59:26.038Z,18.41
2023-04-26T12:00:26.087Z,18.39
2023-04-26T12:01:26.132Z,18.11
2023-04-26T12:02:26.312Z,18.26
2023-04-26T12:03:26.365Z,18.31
2023-04-26T12:04:27.598Z,18.23
2023-04-26T12:05:26.464Z,18.01
2023-04-26T12:06:26.316Z,18.07
2023-04-26T12:07:26.289Z,17.80
2023-04-26T12:08:26.309Z,18.07
2023-04-26T12:09:26.290Z,18.23
2023-04-26T12:10:26.289Z,20.70
2023-04-26T12:11:26.264Z,19.10
2023-04-26T12:12:26.265Z,18.98
2023-04-26T12:13:26.308Z,19.17
2023-04-26T12:14:26.255Z,19.16
2023-04-26T12:15:26.256Z,19.20
2023-04-26T12:16:27.285Z,19.21
2023-04-26T12:17:26.289Z,19.18
2023-04-26T12:18:26.276Z,19.17
2023-04-26T12:19:26.228Z,19.26
2023-04-26T12:20:26.227Z,19.28
2023-04-26T12:21:27.473Z,19.21
2023-04-26T12:22:26.191Z,19.26
2023-04-26T12:23:26.184Z,19.13
2023-04-26T12:24:26.175Z,19.12
2023-04-26T12:25:26.168Z,18.95
2023-04-26T12:26:26.168Z,19.04
2023-04-26T12:27:26.158Z,19.01
2023-04-26T12:28:26.123Z,19.07
2023-04-26T12:29:26.233Z,19.03
2023-04-26T12:30:26.111Z,18.98
2023-04-26T12:31:26.247Z,18.99
2023-04-26T12:32:26.120Z,18.95
2023-04-26T12:33:26.120Z,18.92
2023-04-26T12:34:26.107Z,18.88
2023-04-26T12:35:26.098Z,18.82
2023-04-26T12:36:26.093Z,18.77
2023-04-26T12:37:26.078Z,18.65
2023-04-26T12:38:26.086Z,18.66
2023-04-26T12:39:26.072Z,18.66
2023-04-26T12:40:26.061Z,18.66
2023-04-26T12:41:26.048Z,18.63
2023-04-26T12:42:26.042Z,18.50
2023-04-26T12:43:26.047Z,18.50
2023-04-26T12:44:26.028Z,18.62
2023-04-26T12:45:26.020Z,18.60
2023-04-26T12:46:26.101Z,18.69
2023-04-26T12:47:26.072Z,18.71
2023-04-26T12:48:25.999Z,18.75
2023-04-26T12:49:26.007Z,18.71
2023-04-26T12:50:25.976Z,18.75
2023-04-26T12:51:26.237Z,18.74
2023-04-26T12:52:25.990Z,18.70
2023-04-26T12:53:25.963Z,18.72
2023-04-26T12:54:25.945Z,18.74
2023-04-26T12:55:25.957Z,18.74
2023-04-26T12:56:26.230Z,18.71
2023-04-26T12:57:25.939Z,18.74
2023-04-26T12:58:25.936Z,18.74
2023-04-26T12:59:25.938Z,18.74
2023-04-26T13:00:25.929Z,18.70
2023-04-26T13:01:26.001Z,18.63
2023-04-26T13:02:25.985Z,18.61
2023-04-26T13:03:25.985Z,18.64
2023-04-26T13:04:26.064Z,18.70
2023-04-26T13:05:25.872Z,18.69
2023-04-26T13:06:25.879Z,18.67
2023-04-26T13:07:25.853Z,18.67
2023-04-26T13:08:25.873Z,18.66
2023-04-26T13:09:25.862Z,18.67
2023-04-26T13:10:25.825Z,18.64
2023-04-26T13:11:25.831Z,18.71
2023-04-26T13:12:25.827Z,18.66
2023-04-26T13:13:32.264Z,18.60
2023-04-26T13:14:26.801Z,18.66
2023-04-26T13:15:25.821Z,18.60
2023-04-26T13:16:25.949Z,18.66
2023-04-26T13:17:25.927Z,18.56
2023-04-26T13:18:25.768Z,18.63
2023-04-26T13:19:25.765Z,18.53
2023-04-26T13:20:27.243Z,18.48
2023-04-26T13:21:26.234Z,18.44
2023-04-26T13:22:26.006Z,18.41
2023-04-26T13:23:26.189Z,18.43
2023-04-26T13:24:26.139Z,18.43
2023-04-26T13:25:26.208Z,18.46
2023-04-26T13:26:27.841Z,18.54